createdAt,value
2017-02-21T00:01:01.026Z,32.87
2017-02-21T00:02:11.384Z,32.78
2017-02-21T00:03:21.346Z,32.87
2017-02-21T00:04:32.092Z,32.97
2017-02-21T00:05:42.038Z,33.07
2017-02-21T00:06:52.629Z,32.97
2017-02-21T00:08:03.375Z,33.07
2017-02-21T00:09:13.737Z,33.07
2017-02-21T00:10:24.063Z,32.97
2017-02-21T00:11:34.431Z,32.87
2017-02-21T00:12:45.452Z,32.98
2017-02-21T00:13:56.207Z,33.18
2017-02-21T00:15:06.956Z,33.07
2017-02-21T00:16:17.307Z,33.26
2017-02-21T00:17:27.282Z,32.87
2017-02-21T00:18:37.891Z,33.07
2017-02-21T00:19:47.857Z,33.16
2017-02-21T00:20:58.229Z,33.36
2017-02-21T00:22:08.172Z,33.16
2017-02-21T00:23:18.514Z,33.07
2017-02-21T00:24:29.106Z,33.07
2017-02-21T00:25:39.883Z,33.26
2017-02-21T00:26:50.642Z,32.98
2017-02-21T00:28:01.000Z,33.07
2017-02-21T00:29:11.775Z,32.97
2017-02-21T00:30:22.384Z,32.97
2017-02-21T00:31:32.325Z,33.16
2017-02-21T00:32:42.683Z,33.26
2017-02-21T00:33:53.018Z,33.18
2017-02-21T00:35:02.996Z,33.07
2017-02-21T00:36:13.593Z,33.26
2017-02-21T00:37:23.933Z,33.16
2017-02-21T00:38:33.880Z,32.97
2017-02-21T00:39:44.633Z,33.07
2017-02-21T00:40:55.381Z,33.16
2017-02-21T00:42:06.372Z,33.26
2017-02-21T00:43:17.118Z,33.07
2017-02-21T00:44:27.471Z,33.26
2017-02-21T00:45:38.250Z,32.87
2017-02-21T00:46:48.604Z,32.87
2017-02-21T00:47:59.611Z,33.08
2017-02-21T00:49:09.957Z,32.97
2017-02-21T00:50:19.900Z,32.78
2017-02-21T00:51:29.842Z,32.97
2017-02-21T00:52:40.188Z,33.07
2017-02-21T00:53:51.224Z,33.26
2017-02-21T00:55:01.971Z,33.26
2017-02-21T00:56:11.915Z,33.26
2017-02-21T00:57:22.282Z,33.07
2017-02-21T00:58:32.251Z,32.87
2017-02-21T00:59:43.292Z,32.98
2017-02-21T01:00:53.646Z,32.97
2017-02-21T01:02:03.184Z,33.16
2017-02-21T01:03:13.951Z,33.16
2017-02-21T01:04:24.689Z,33.16
2017-02-21T01:05:34.921Z,33.07
2017-02-21T01:06:45.709Z,33.07
2017-02-21T01:07:56.070Z,32.78
2017-02-21T01:09:06.818Z,32.78
2017-02-21T01:10:17.570Z,32.78
2017-02-21T01:11:28.203Z,32.98
2017-02-21T01:12:38.949Z,33.07
2017-02-21T01:13:48.909Z,33.16
2017-02-21T01:14:59.268Z,33.07
2017-02-21T01:16:09.225Z,33.18
2017-02-21T01:17:19.878Z,33.07
2017-02-21T01:18:30.242Z,33.26
2017-02-21T01:19:41.006Z,33.16
2017-02-21T01:20:51.752Z,33.26
2017-02-21T01:22:02.120Z,33.07
2017-02-21T01:23:13.119Z,33.16
2017-02-21T01:24:23.864Z,32.97
2017-02-21T01:25:33.828Z,33.16
2017-02-21T01:26:44.172Z,33.07
2017-02-21T01:27:54.146Z,32.79
2017-02-21T01:29:04.350Z,33.16
2017-02-21T01:30:15.112Z,33.07
2017-02-21T01:31:25.854Z,33.16
2017-02-21T01:32:35.800Z,33.07
2017-02-21T01:33:46.533Z,33.07
2017-02-21T01:34:57.154Z,33.36
2017-02-21T01:36:07.498Z,32.87
2017-02-21T01:37:17.845Z,32.98
2017-02-21T01:38:28.210Z,33.07
2017-02-21T01:39:38.555Z,33.07
2017-02-21T01:40:48.745Z,32.78
2017-02-21T01:41:58.677Z,32.78
2017-02-21T01:43:09.410Z,32.87
2017-02-21T01:44:19.349Z,33.45
2017-02-21T01:45:29.308Z,32.97
2017-02-21T01:46:40.349Z,33.45
2017-02-21T01:47:51.097Z,32.87
2017-02-21T01:49:01.835Z,33.45
2017-02-21T01:50:11.397Z,33.07
2017-02-21T01:51:21.748Z,32.97
2017-02-21T01:52:32.780Z,33.28
2017-02-21T01:53:42.334Z,33.07
2017-02-21T01:54:52.684Z,33.07
2017-02-21T01:56:02.635Z,32.87
2017-02-21T01:57:12.982Z,33.07
2017-02-21T01:58:23.619Z,33.07
2017-02-21T01:59:33.966Z,33.07
2017-02-21T02:00:43.909Z,32.87
2017-02-21T02:01:53.867Z,33.16
2017-02-21T02:03:03.441Z,33.07
2017-02-21T02:04:12.885Z,33.07
2017-02-21T02:05:22.841Z,33.07
2017-02-21T02:06:33.189Z,33.26
2017-02-21T02:07:43.550Z,33.07
2017-02-21T02:08:53.932Z,32.97
2017-02-21T02:10:03.394Z,33.16
2017-02-21T02:11:13.340Z,33.16
2017-02-21T02:12:23.698Z,33.07
2017-02-21T02:13:33.656Z,33.26
2017-02-21T02:14:43.614Z,33.16
2017-02-21T02:15:54.605Z,33.26
2017-02-21T02:17:05.358Z,33.07
2017-02-21T02:18:16.098Z,32.87
2017-02-21T02:19:26.468Z,33.07
2017-02-21T02:20:36.820Z,33.26
2017-02-21T02:21:47.813Z,33.36
2017-02-21T02:22:58.561Z,33.16
2017-02-21T02:24:08.501Z,33.16
2017-02-21T02:25:18.071Z,33.07
2017-02-21T02:26:28.814Z,32.97
2017-02-21T02:27:39.467Z,32.97
2017-02-21T02:28:50.219Z,33.07
2017-02-21T02:30:00.171Z,32.87
2017-02-21T02:31:10.539Z,32.87
2017-02-21T02:32:20.508Z,32.97
2017-02-21T02:33:30.321Z,32.78
2017-02-21T02:34:40.676Z,32.87
2017-02-21T02:35:51.432Z,32.68
2017-02-21T02:37:01.774Z,32.78
2017-02-21T02:38:12.549Z,32.68
2017-02-21T02:39:23.147Z,32.68
2017-02-21T02:40:33.086Z,32.59
2017-02-21T02:41:43.428Z,32.87
2017-02-21T02:42:54.179Z,32.68
2017-02-21T02:44:04.930Z,32.87
2017-02-21T02:45:15.940Z,32.87
2017-02-21T02:46:26.702Z,32.68
2017-02-21T02:47:36.702Z,32.68
2017-02-21T02:48:46.664Z,32.59
2017-02-21T02:49:56.628Z,32.59
2017-02-21T02:51:07.291Z,32.59
2017-02-21T02:52:17.226Z,32.68
2017-02-21T02:53:27.968Z,32.59
2017-02-21T02:54:38.312Z,32.87
2017-02-21T02:55:48.267Z,32.59
2017-02-21T02:56:58.522Z,32.68
2017-02-21T02:58:08.070Z,32.78
2017-02-21T02:59:18.819Z,32.68
2017-02-21T03:00:29.169Z,32.68
2017-02-21T03:01:39.126Z,32.68
2017-02-21T03:02:49.314Z,32.78
2017-02-21T03:04:00.064Z,32.78
2017-02-21T03:05:10.819Z,32.68
2017-02-21T03:06:21.178Z,32.87
2017-02-21T03:07:30.720Z,32.39
2017-02-21T03:08:40.947Z,32.59
2017-02-21T03:09:50.137Z,32.59
2017-02-21T03:11:00.913Z,32.59
2017-02-21T03:12:11.657Z,32.49
2017-02-21T03:13:21.603Z,32.49
2017-02-21T03:14:32.224Z,32.59
2017-02-21T03:15:42.598Z,32.79
2017-02-21T03:16:53.366Z,32.78
2017-02-21T03:18:03.306Z,32.78
2017-02-21T03:19:14.050Z,32.78
2017-02-21T03:20:24.336Z,32.59
2017-02-21T03:21:34.681Z,32.68
2017-02-21T03:22:45.037Z,32.68
2017-02-21T03:23:55.769Z,32.68
2017-02-21T03:25:06.509Z,32.59
2017-02-21T03:26:17.110Z,32.68
2017-02-21T03:27:27.476Z,32.39
2017-02-21T03:28:37.017Z,32.31
2017-02-21T03:29:47.754Z,32.49
2017-02-21T03:30:58.095Z,32.49
2017-02-21T03:32:08.300Z,32.49
2017-02-21T03:33:18.252Z,32.39
2017-02-21T03:34:28.212Z,32.3
2017-02-21T03:35:38.656Z,32.39
2017-02-21T03:36:48.211Z,32.39
2017-02-21T03:37:59.255Z,32.39
2017-02-21T03:39:09.603Z,32.39
2017-02-21T03:40:19.956Z,32.39
2017-02-21T03:41:30.700Z,32.39
2017-02-21T03:42:40.682Z,32.39
2017-02-21T03:43:50.940Z,32.68
2017-02-21T03:45:01.299Z,32.49
2017-02-21T03:46:11.270Z,32.3
2017-02-21T03:47:21.613Z,32.39
2017-02-21T03:48:31.971Z,32.3
2017-02-21T03:49:42.969Z,32.3
2017-02-21T03:50:53.328Z,32.49
2017-02-21T03:52:03.691Z,32.39
2017-02-21T03:53:14.038Z,32.01
2017-02-21T03:54:24.786Z,32.2
2017-02-21T03:55:34.627Z,32.3
2017-02-21T03:56:44.975Z,32.2
2017-02-21T03:57:55.164Z,32.2
2017-02-21T03:59:05.516Z,32.1
2017-02-21T04:00:15.462Z,32.2
2017-02-21T04:01:26.076Z,32.1
2017-02-21T04:02:36.431Z,32.2
2017-02-21T04:03:46.783Z,32.2
2017-02-21T04:04:57.543Z,32.1
2017-02-21T04:06:07.887Z,32.01
2017-02-21T04:07:18.867Z,32.2
2017-02-21T04:08:29.855Z,32.01
2017-02-21T04:09:39.807Z,32.01
2017-02-21T04:10:50.149Z,31.92
2017-02-21T04:12:00.483Z,32.2
2017-02-21T04:13:10.682Z,32.01
2017-02-21T04:14:21.027Z,32.01
2017-02-21T04:15:31.773Z,32.01
2017-02-21T04:16:41.727Z,32.2
2017-02-21T04:17:51.696Z,32.1
2017-02-21T04:19:01.562Z,32.2
2017-02-21T04:20:11.910Z,32.01
2017-02-21T04:21:21.872Z,32.01
2017-02-21T04:22:32.617Z,31.92
2017-02-21T04:23:42.957Z,32.01
2017-02-21T04:24:53.239Z,32.1
2017-02-21T04:26:03.216Z,32.01
2017-02-21T04:27:13.578Z,32.01
2017-02-21T04:28:23.542Z,31.92
2017-02-21T04:29:33.913Z,32.01
2017-02-21T04:30:44.564Z,32.1
2017-02-21T04:31:54.899Z,31.92
2017-02-21T04:33:05.290Z,32.1
2017-02-21T04:34:15.260Z,32.01
2017-02-21T04:35:25.616Z,32.1
2017-02-21T04:36:36.622Z,32.2
2017-02-21T04:37:46.969Z,31.92
2017-02-21T04:38:57.713Z,32.01
2017-02-21T04:40:08.063Z,32.01
2017-02-21T04:41:18.413Z,32.1
2017-02-21T04:42:28.611Z,32.1
2017-02-21T04:43:38.583Z,32.1
2017-02-21T04:44:48.536Z,32.01
2017-02-21T04:45:58.942Z,31.92
2017-02-21T04:47:09.300Z,32.01
2017-02-21T04:48:19.891Z,32.01
2017-02-21T04:49:30.637Z,31.82
2017-02-21T04:50:40.976Z,32.01
2017-02-21T04:51:50.564Z,31.82
2017-02-21T04:53:00.135Z,31.92
2017-02-21T04:54:10.407Z,31.92
2017-02-21T04:55:19.972Z,31.72
2017-02-21T04:56:30.311Z,32.01
2017-02-21T04:57:40.657Z,31.82
2017-02-21T04:58:50.605Z,31.92
2017-02-21T05:00:01.248Z,31.92
2017-02-21T05:01:11.594Z,31.92
2017-02-21T05:02:22.365Z,31.82
2017-02-21T05:03:32.720Z,31.82
2017-02-21T05:04:43.485Z,31.82
2017-02-21T05:05:54.087Z,31.92
2017-02-21T05:07:04.826Z,31.82
2017-02-21T05:08:15.575Z,31.72
2017-02-21T05:09:26.327Z,31.72
2017-02-21T05:10:36.312Z,31.82
2017-02-21T05:11:46.945Z,31.82
2017-02-21T05:12:57.283Z,31.82
2017-02-21T05:14:07.657Z,31.72
2017-02-21T05:15:18.404Z,31.92
2017-02-21T05:16:29.155Z,31.82
2017-02-21T05:17:39.002Z,31.82
2017-02-21T05:18:48.968Z,31.72
2017-02-21T05:19:59.328Z,31.82
2017-02-21T05:21:09.297Z,31.62
2017-02-21T05:22:20.042Z,31.72
2017-02-21T05:23:30.301Z,31.82
2017-02-21T05:24:41.035Z,31.82
2017-02-21T05:25:51.011Z,31.72
2017-02-21T05:27:01.767Z,31.62
2017-02-21T05:28:11.712Z,31.72
2017-02-21T05:29:21.898Z,31.72
2017-02-21T05:30:31.878Z,31.53
2017-02-21T05:31:42.234Z,31.53
2017-02-21T05:32:52.577Z,31.53
2017-02-21T05:34:02.925Z,31.62
2017-02-21T05:35:13.542Z,31.53
2017-02-21T05:36:24.273Z,31.62
2017-02-21T05:37:34.618Z,31.53
2017-02-21T05:38:44.972Z,31.62
2017-02-21T05:39:54.918Z,31.62
2017-02-21T05:41:05.566Z,31.53
2017-02-21T05:42:15.917Z,31.62
2017-02-21T05:43:25.892Z,31.43
2017-02-21T05:44:36.267Z,31.43
2017-02-21T05:45:46.614Z,31.43
2017-02-21T05:46:56.827Z,31.53
2017-02-21T05:48:06.804Z,31.34
2017-02-21T05:49:17.151Z,31.34
2017-02-21T05:50:27.527Z,31.34
2017-02-21T05:51:37.515Z,31.34
2017-02-21T05:52:47.741Z,31.34
2017-02-21T05:53:57.701Z,31.34
2017-02-21T05:55:08.053Z,31.34
2017-02-21T05:56:17.614Z,31.43
2017-02-21T05:57:27.956Z,31.34
2017-02-21T05:58:38.637Z,31.24
2017-02-21T05:59:48.986Z,31.34
2017-02-21T06:00:59.747Z,31.43
2017-02-21T06:02:10.082Z,31.34
2017-02-21T06:03:20.441Z,31.43
2017-02-21T06:04:31.024Z,31.24
2017-02-21T06:05:40.990Z,31.24
2017-02-21T06:06:51.745Z,31.24
2017-02-21T06:08:02.510Z,31.24
2017-02-21T06:09:12.848Z,31.24
2017-02-21T06:10:23.885Z,31.34
2017-02-21T06:11:33.473Z,31.34
2017-02-21T06:12:44.219Z,31.24
2017-02-21T06:13:54.967Z,31.24
2017-02-21T06:15:05.322Z,31.24
2017-02-21T06:16:15.924Z,31.34
2017-02-21T06:17:26.119Z,31.24
2017-02-21T06:18:36.861Z,31.15
2017-02-21T06:19:47.630Z,31.15
2017-02-21T06:20:58.404Z,31.15
2017-02-21T06:22:09.066Z,31.15
2017-02-21T06:23:19.022Z,31.15
2017-02-21T06:24:28.965Z,31.15
2017-02-21T06:25:39.355Z,31.24
2017-02-21T06:26:49.712Z,31.15
2017-02-21T06:27:59.640Z,31.05
2017-02-21T06:29:10.405Z,30.95
2017-02-21T06:30:21.144Z,31.16
2017-02-21T06:31:31.893Z,30.95
2017-02-21T06:32:42.638Z,31.05
2017-02-21T06:33:53.239Z,30.95
2017-02-21T06:35:02.788Z,31.05
2017-02-21T06:36:13.288Z,31.05
2017-02-21T06:37:22.839Z,31.05
2017-02-21T06:38:33.184Z,30.95
2017-02-21T06:39:43.438Z,30.95
2017-02-21T06:40:53.403Z,30.95
2017-02-21T06:42:04.148Z,31.05
2017-02-21T06:43:14.112Z,30.85
2017-02-21T06:44:24.074Z,30.95
2017-02-21T06:45:35.131Z,30.76
2017-02-21T06:46:45.516Z,30.85
2017-02-21T06:47:56.285Z,30.76
2017-02-21T06:49:05.860Z,30.85
2017-02-21T06:50:16.209Z,30.76
2017-02-21T06:51:26.868Z,30.85
2017-02-21T06:52:37.235Z,30.76
2017-02-21T06:53:48.004Z,30.76
2017-02-21T06:54:58.375Z,30.76
2017-02-21T06:56:08.343Z,30.76
2017-02-21T06:57:18.545Z,30.85
2017-02-21T06:58:28.504Z,30.85
2017-02-21T06:59:38.888Z,30.76
2017-02-21T07:00:49.650Z,30.95
2017-02-21T07:02:00.454Z,30.95
2017-02-21T07:03:11.285Z,30.85
2017-02-21T07:04:22.091Z,30.95
2017-02-21T07:05:32.069Z,31.05
2017-02-21T07:06:42.439Z,30.95
2017-02-21T07:07:53.224Z,30.95
2017-02-21T07:09:04.248Z,31.05
2017-02-21T07:10:15.007Z,31.05
2017-02-21T07:11:25.751Z,31.05
2017-02-21T07:12:36.512Z,30.95
2017-02-21T07:13:46.883Z,31.05
2017-02-21T07:14:58.062Z,31.15
2017-02-21T07:16:08.404Z,31.24
2017-02-21T07:17:17.985Z,31.24
2017-02-21T07:18:28.343Z,31.15
2017-02-21T07:19:38.750Z,31.15
2017-02-21T07:20:49.806Z,31.35
2017-02-21T07:22:00.189Z,31.24
2017-02-21T07:23:10.980Z,31.05
2017-02-21T07:24:21.018Z,31.15
2017-02-21T07:25:31.795Z,31.35
2017-02-21T07:26:41.652Z,31.45
2017-02-21T07:27:52.030Z,31.34
2017-02-21T07:29:02.791Z,31.34
2017-02-21T07:30:13.150Z,31.24
2017-02-21T07:31:23.892Z,31.43
2017-02-21T07:32:34.193Z,31.45
2017-02-21T07:33:44.945Z,31.43
2017-02-21T07:34:55.284Z,31.53
2017-02-21T07:36:06.043Z,31.53
2017-02-21T07:37:16.403Z,31.54
2017-02-21T07:38:27.006Z,31.62
2017-02-21T07:39:37.771Z,31.53
2017-02-21T07:40:48.516Z,31.62
2017-02-21T07:41:58.942Z,31.62
2017-02-21T07:43:09.726Z,31.64
2017-02-21T07:44:20.808Z,31.62
2017-02-21T07:45:31.563Z,31.62
2017-02-21T07:46:42.321Z,31.62
2017-02-21T07:47:52.287Z,31.54
2017-02-21T07:49:02.673Z,31.62
2017-02-21T07:50:12.941Z,31.62
2017-02-21T07:51:23.691Z,31.54
2017-02-21T07:52:34.454Z,31.62
2017-02-21T07:53:44.042Z,31.34
2017-02-21T07:54:54.420Z,31.45
2017-02-21T07:56:05.047Z,31.45
2017-02-21T07:57:15.040Z,31.45
2017-02-21T07:58:25.814Z,31.54
2017-02-21T07:59:35.770Z,31.64
2017-02-21T08:00:46.545Z,31.54
2017-02-21T08:01:56.378Z,31.64
2017-02-21T08:03:07.137Z,31.64
2017-02-21T08:04:16.336Z,31.34
2017-02-21T08:05:26.705Z,31.54
2017-02-21T08:06:37.482Z,31.54
2017-02-21T08:07:48.563Z,31.45
2017-02-21T08:08:59.334Z,31.45
2017-02-21T08:10:09.328Z,31.34
2017-02-21T08:11:19.728Z,31.45
2017-02-21T08:12:30.681Z,31.24
2017-02-21T08:13:41.707Z,31.15
2017-02-21T08:14:52.092Z,31.06
2017-02-21T08:16:02.888Z,31.06
2017-02-21T08:17:13.278Z,31.26
2017-02-21T08:18:23.674Z,31.16
2017-02-21T08:19:34.287Z,31.15
2017-02-21T08:20:44.673Z,31.24
2017-02-21T08:21:54.236Z,31.15
2017-02-21T08:23:04.621Z,31.15
2017-02-21T08:24:15.395Z,31.24
2017-02-21T08:25:26.032Z,31.34
2017-02-21T08:26:36.801Z,31.53
2017-02-21T08:27:47.199Z,31.83
2017-02-21T08:28:57.573Z,31.83
2017-02-21T08:30:07.934Z,32.1
2017-02-21T08:31:18.733Z,31.92
2017-02-21T08:32:29.491Z,32.31
2017-02-21T08:33:39.839Z,32.1
2017-02-21T08:34:49.787Z,32.21
2017-02-21T08:35:59.741Z,32.03
2017-02-21T08:37:09.928Z,32.41
2017-02-21T08:38:19.897Z,32.41
2017-02-21T08:39:30.641Z,32.6
2017-02-21T08:40:41.425Z,32.51
2017-02-21T08:41:52.466Z,33.08
2017-02-21T08:43:02.857Z,33.08
2017-02-21T08:44:13.614Z,32.98
2017-02-21T08:45:24.363Z,32.98
2017-02-21T08:46:35.105Z,32.89
2017-02-21T08:47:46.126Z,32.98
2017-02-21T08:48:56.504Z,32.89
2017-02-21T08:50:06.884Z,33.08
2017-02-21T08:51:16.463Z,33.08
2017-02-21T08:52:27.229Z,33.08
2017-02-21T08:53:38.199Z,32.89
2017-02-21T08:54:48.273Z,33.18
2017-02-21T08:55:58.219Z,32.98
2017-02-21T08:57:08.164Z,33.08
2017-02-21T08:58:18.519Z,33.18
2017-02-21T08:59:28.744Z,33.08
2017-02-21T09:00:38.709Z,33.18
2017-02-21T09:01:49.457Z,33.18
2017-02-21T09:02:59.432Z,33.28
2017-02-21T09:04:10.196Z,33.08
2017-02-21T09:05:20.811Z,32.98
2017-02-21T09:06:31.174Z,33.2
2017-02-21T09:07:41.556Z,32.89
2017-02-21T09:08:51.537Z,32.89
2017-02-21T09:10:01.509Z,33.28
2017-02-21T09:11:11.713Z,32.98
2017-02-21T09:12:22.073Z,32.98
2017-02-21T09:13:32.427Z,32.98
2017-02-21T09:14:42.813Z,32.98
2017-02-21T09:15:53.157Z,33.28
2017-02-21T09:17:04.243Z,34.14
2017-02-21T09:18:14.587Z,34.33
2017-02-21T09:19:24.561Z,35.22
2017-02-21T09:20:34.109Z,35.31
2017-02-21T09:21:44.071Z,35.6
2017-02-21T09:22:55.098Z,35.89
2017-02-21T09:24:05.447Z,36.37
2017-02-21T09:25:15.811Z,36.37
2017-02-21T09:26:26.201Z,36.76
2017-02-21T09:27:36.397Z,36.95
2017-02-21T09:28:47.030Z,37.04
2017-02-21T09:29:57.769Z,37.62
2017-02-21T09:31:08.145Z,37.72
2017-02-21T09:32:18.922Z,37.91
2017-02-21T09:33:28.900Z,38.1
2017-02-21T09:34:39.898Z,38.2
2017-02-21T09:35:49.856Z,38.01
2017-02-21T09:37:00.231Z,38.51
2017-02-21T09:38:10.968Z,38.6
2017-02-21T09:39:21.328Z,38.12
2017-02-21T09:40:31.936Z,38.79
2017-02-21T09:41:41.926Z,38.41
2017-02-21T09:42:52.687Z,38.79
2017-02-21T09:44:03.461Z,38.51
2017-02-21T09:45:13.425Z,38.6
2017-02-21T09:46:23.638Z,38.6
2017-02-21T09:47:33.600Z,38.22
2017-02-21T09:48:43.595Z,38.22
2017-02-21T09:49:53.575Z,38.22
2017-02-21T09:51:03.942Z,38.79
2017-02-21T09:52:15.250Z,38.51
2017-02-21T09:53:25.225Z,38.89
2017-02-21T09:54:35.567Z,39.37
2017-02-21T09:55:46.316Z,39.28
2017-02-21T09:56:56.290Z,38.51
2017-02-21T09:58:06.943Z,38.7
2017-02-21T09:59:17.303Z,38.51
2017-02-21T10:00:27.682Z,38.79
2017-02-21T10:01:37.628Z,38.79
2017-02-21T10:02:48.608Z,39.37
2017-02-21T10:03:59.583Z,39.66
2017-02-21T10:05:09.932Z,39.95
2017-02-21T10:06:20.309Z,39.86
2017-02-21T10:07:30.270Z,39.39
2017-02-21T10:08:41.035Z,39.37
2017-02-21T10:09:52.041Z,39.2
2017-02-21T10:11:01.602Z,39.2
2017-02-21T10:12:11.181Z,39.37
2017-02-21T10:13:21.548Z,39.47
2017-02-21T10:14:31.496Z,39.49
2017-02-21T10:15:41.769Z,39.68
2017-02-21T10:16:51.310Z,39.59
2017-02-21T10:18:01.294Z,39.29
2017-02-21T10:19:11.263Z,39.56
2017-02-21T10:20:22.022Z,39.66
2017-02-21T10:21:32.616Z,39.76
2017-02-21T10:22:43.359Z,39.28
2017-02-21T10:23:53.334Z,39.37
2017-02-21T10:25:03.686Z,39.37
2017-02-21T10:26:13.657Z,39.18
2017-02-21T10:27:24.285Z,39.09
2017-02-21T10:28:35.026Z,39.18
2017-02-21T10:29:45.785Z,39.09
2017-02-21T10:30:56.161Z,38.6
2017-02-21T10:32:06.950Z,38.51
2017-02-21T10:33:17.818Z,38.02
2017-02-21T10:34:28.535Z,38.31
2017-02-21T10:35:38.500Z,38.22
2017-02-21T10:36:49.242Z,37.74
2017-02-21T10:37:58.806Z,37.45
2017-02-21T10:39:09.456Z,37.45
2017-02-21T10:40:19.388Z,37.26
2017-02-21T10:41:30.157Z,36.97
2017-02-21T10:42:40.118Z,36.49
2017-02-21T10:43:49.674Z,36.49
2017-02-21T10:45:00.342Z,36.29
2017-02-21T10:46:10.729Z,36
2017-02-21T10:47:21.104Z,35.81
2017-02-21T10:48:31.862Z,35.81
2017-02-21T10:49:41.397Z,36
2017-02-21T10:50:51.622Z,35.91
2017-02-21T10:52:02.379Z,35.91
2017-02-21T10:53:12.351Z,35.62
2017-02-21T10:54:22.737Z,35.52
2017-02-21T10:55:33.107Z,35.52
2017-02-21T10:56:43.373Z,35.33
2017-02-21T10:57:54.113Z,35.14
2017-02-21T10:59:04.477Z,35.33
2017-02-21T11:00:14.826Z,35.33
2017-02-21T11:01:25.571Z,35.04
2017-02-21T11:02:36.153Z,35.04
2017-02-21T11:03:46.516Z,35.24
2017-02-21T11:04:57.348Z,35.14
2017-02-21T11:06:07.293Z,34.66
2017-02-21T11:07:18.052Z,34.75
2017-02-21T11:08:28.708Z,34.46
2017-02-21T11:09:39.054Z,34.46
2017-02-21T11:10:49.442Z,34.46
2017-02-21T11:11:59.803Z,34.27
2017-02-21T11:13:10.164Z,34.37
2017-02-21T11:14:21.141Z,34.37
2017-02-21T11:15:31.515Z,34.29
2017-02-21T11:16:41.895Z,34.08
2017-02-21T11:17:51.892Z,34.19
2017-02-21T11:19:02.285Z,34.08
2017-02-21T11:20:12.697Z,34.17
2017-02-21T11:21:23.054Z,33.69
2017-02-21T11:22:33.042Z,33.98
2017-02-21T11:23:43.012Z,33.98
2017-02-21T11:24:53.777Z,33.69
2017-02-21T11:26:04.143Z,33.5
2017-02-21T11:27:14.507Z,33.02
2017-02-21T11:28:25.267Z,33.31
2017-02-21T11:29:35.624Z,33.21
2017-02-21T11:30:46.508Z,33.12
2017-02-21T11:31:56.869Z,32.73
2017-02-21T11:33:07.604Z,32.54
2017-02-21T11:34:17.983Z,32.44
2017-02-21T11:35:27.951Z,32.44
2017-02-21T11:36:38.694Z,32.15
2017-02-21T11:37:49.522Z,31.96
2017-02-21T11:38:59.855Z,31.96
2017-02-21T11:40:09.402Z,31.67
2017-02-21T11:41:19.749Z,31.69
2017-02-21T11:42:30.745Z,31.48
2017-02-21T11:43:41.109Z,31.19
2017-02-21T11:44:51.865Z,31
2017-02-21T11:46:02.198Z,30.71
2017-02-21T11:47:12.167Z,30.61
2017-02-21T11:48:23.170Z,30.34
2017-02-21T11:49:33.946Z,30.05
2017-02-21T11:50:43.528Z,29.94
2017-02-21T11:51:53.938Z,29.47
2017-02-21T11:53:03.916Z,29.66
2017-02-21T11:54:14.948Z,29.57
2017-02-21T11:55:24.918Z,29.38
2017-02-21T11:56:34.882Z,29.28
2017-02-21T11:57:44.840Z,29.57
2017-02-21T11:58:55.200Z,28.89
2017-02-21T12:00:06.194Z,28.8
2017-02-21T12:01:16.570Z,28.61
2017-02-21T12:02:26.563Z,28.61
2017-02-21T12:03:36.900Z,28.31
2017-02-21T12:04:47.650Z,28.22
2017-02-21T12:05:57.898Z,28.22
2017-02-21T12:07:07.859Z,28.31
2017-02-21T12:08:18.208Z,28.13
2017-02-21T12:09:28.215Z,27.83
2017-02-21T12:10:38.547Z,28.13
2017-02-21T12:11:49.542Z,28.03
2017-02-21T12:12:59.098Z,28.31
2017-02-21T12:14:09.451Z,28.31
2017-02-21T12:15:20.180Z,28.22
2017-02-21T12:16:30.522Z,27.55
2017-02-21T12:17:41.547Z,27.64
2017-02-21T12:18:52.289Z,27.26
2017-02-21T12:20:02.879Z,27.16
2017-02-21T12:21:13.635Z,27.16
2017-02-21T12:22:23.587Z,26.97
2017-02-21T12:23:33.783Z,27.26
2017-02-21T12:24:44.174Z,26.68
2017-02-21T12:25:53.396Z,26.39
2017-02-21T12:27:03.363Z,26.2
2017-02-21T12:28:13.713Z,25.81
2017-02-21T12:29:23.934Z,25.91
2017-02-21T12:30:33.942Z,25.71
2017-02-21T12:31:44.752Z,25.62
2017-02-21T12:32:55.096Z,25.52
2017-02-21T12:34:05.854Z,25.52
2017-02-21T12:35:16.509Z,25.04
2017-02-21T12:36:27.256Z,25.23
2017-02-21T12:37:37.621Z,24.95
2017-02-21T12:38:48.392Z,24.66
2017-02-21T12:39:59.179Z,24.85
2017-02-21T12:41:09.794Z,24.27
2017-02-21T12:42:20.140Z,24.37
2017-02-21T12:43:30.089Z,23.98
2017-02-21T12:44:40.046Z,23.79
2017-02-21T12:45:50.795Z,23.79
2017-02-21T12:47:00.668Z,23.98
2017-02-21T12:48:10.621Z,23.88
2017-02-21T12:49:20.598Z,23.69
2017-02-21T12:50:30.971Z,23.98
2017-02-21T12:51:41.381Z,23.79
2017-02-21T12:52:51.342Z,23.79
2017-02-21T12:54:02.126Z,23.98
2017-02-21T12:55:13.139Z,24.37
2017-02-21T12:56:23.899Z,24.08
2017-02-21T12:57:34.489Z,24.46
2017-02-21T12:58:45.219Z,24.08
2017-02-21T12:59:55.953Z,24.46
2017-02-21T13:01:06.731Z,25.13
2017-02-21T13:02:16.709Z,25.23
2017-02-21T13:03:26.907Z,26
2017-02-21T13:04:37.266Z,26
2017-02-21T13:05:47.651Z,25.71
2017-02-21T13:06:58.052Z,26.2
2017-02-21T13:08:08.443Z,26.48
2017-02-21T13:09:19.478Z,26.87
2017-02-21T13:10:30.252Z,26.68
2017-02-21T13:11:40.216Z,26.68
2017-02-21T13:12:50.062Z,27.06
2017-02-21T13:14:00.827Z,27.45
2017-02-21T13:15:11.047Z,27.55
2017-02-21T13:16:21.800Z,27.64
2017-02-21T13:17:31.746Z,27.83
2017-02-21T13:18:42.136Z,27.64
2017-02-21T13:19:52.483Z,27.74
2017-02-21T13:21:03.081Z,27.74
2017-02-21T13:22:13.455Z,27.55
2017-02-21T13:23:24.283Z,27.93
2017-02-21T13:24:34.242Z,27.64
2017-02-21T13:25:44.607Z,27.26
2017-02-21T13:26:54.883Z,27.93
2017-02-21T13:28:05.625Z,27.83
2017-02-21T13:29:16.367Z,27.93
2017-02-21T13:30:26.338Z,27.83
2017-02-21T13:31:36.724Z,27.83
2017-02-21T13:32:47.326Z,27.93
2017-02-21T13:33:57.699Z,27.93
2017-02-21T13:35:08.042Z,27.93
2017-02-21T13:36:18.401Z,27.93
2017-02-21T13:37:28.795Z,27.83
2017-02-21T13:38:39.809Z,27.64
2017-02-21T13:39:49.780Z,27.83
2017-02-21T13:41:00.151Z,27.93
2017-02-21T13:42:10.494Z,27.93
2017-02-21T13:43:20.475Z,28.03
2017-02-21T13:44:31.489Z,27.64
2017-02-21T13:45:41.885Z,27.64
2017-02-21T13:46:51.450Z,27.64
2017-02-21T13:48:01.822Z,27.37
2017-02-21T13:49:12.569Z,27.75
2017-02-21T13:50:22.784Z,27.46
2017-02-21T13:51:33.136Z,27.37
2017-02-21T13:52:43.863Z,27.66
2017-02-21T13:53:54.209Z,27.46
2017-02-21T13:55:04.580Z,27.46
2017-02-21T13:56:15.222Z,27.27
2017-02-21T13:57:25.584Z,27.17
2017-02-21T13:58:35.952Z,27.46
2017-02-21T13:59:46.322Z,27.27
2017-02-21T14:00:56.245Z,27.55
2017-02-21T14:02:07.319Z,27.56
2017-02-21T14:03:18.101Z,27.46
2017-02-21T14:04:28.451Z,27.35
2017-02-21T14:05:38.806Z,27.56
2017-02-21T14:06:49.568Z,27.45
2017-02-21T14:08:00.194Z,27.06
2017-02-21T14:09:10.967Z,27.16
2017-02-21T14:10:21.542Z,27.16
2017-02-21T14:11:31.892Z,27.26
2017-02-21T14:12:42.602Z,27.16
2017-02-21T14:13:53.199Z,26.97
2017-02-21T14:15:03.969Z,26.87
2017-02-21T14:16:14.326Z,26.87
2017-02-21T14:17:24.736Z,26.48
2017-02-21T14:18:34.730Z,26.97
2017-02-21T14:19:45.740Z,26.68
2017-02-21T14:20:56.088Z,26.58
2017-02-21T14:22:06.424Z,26.39
2017-02-21T14:23:16.399Z,26.39
2017-02-21T14:24:27.140Z,26.1
2017-02-21T14:25:38.371Z,26.39
2017-02-21T14:26:48.322Z,26.29
2017-02-21T14:27:59.097Z,26.29
2017-02-21T14:29:09.471Z,26.1
2017-02-21T14:30:19.839Z,26.2
2017-02-21T14:31:30.566Z,26.2
2017-02-21T14:32:41.311Z,26.2
2017-02-21T14:33:50.867Z,26.29
2017-02-21T14:35:01.597Z,26.2
2017-02-21T14:36:12.333Z,25.91
2017-02-21T14:37:22.978Z,26.1
2017-02-21T14:38:32.963Z,25.71
2017-02-21T14:39:43.713Z,25.62
2017-02-21T14:40:53.685Z,25.81
2017-02-21T14:42:04.025Z,25.81
2017-02-21T14:43:14.685Z,25.91
2017-02-21T14:44:24.647Z,25.91
2017-02-21T14:45:35.398Z,25.71
2017-02-21T14:46:45.737Z,25.71
2017-02-21T14:47:56.093Z,25.71
2017-02-21T14:49:06.733Z,25.52
2017-02-21T14:50:17.119Z,25.62
2017-02-21T14:51:27.477Z,25.52
2017-02-21T14:52:37.471Z,25.52
2017-02-21T14:53:48.214Z,25.23
2017-02-21T14:54:58.889Z,25.33
2017-02-21T14:56:09.268Z,25.33
2017-02-21T14:57:20.025Z,25.13
2017-02-21T14:58:30.375Z,25.13
2017-02-21T14:59:40.335Z,25.43
2017-02-21T15:00:50.943Z,25.43
2017-02-21T15:02:01.309Z,24.85
2017-02-21T15:03:11.299Z,24.85
2017-02-21T15:04:21.298Z,24.85
2017-02-21T15:05:30.872Z,25.04
2017-02-21T15:06:41.882Z,25.04
2017-02-21T15:07:52.231Z,25.13
2017-02-21T15:09:02.592Z,25.23